Time;durP1;ratioP1;P1;durP2;ratioP2;P2;SDS_P1;SDS_P2;PMS_P1;PMS_P2;Temp;Humidity;BMP_temperature;BMP_pressure;BME280_temperature;BME280_humidity;BME280_pressure;Samples;Min_cycle;Max_cycle;Signal;HPM_P1;HPM_P2
2022/03/16 00:00:13;;;;;;;6.63;2.90;;;;;;;-0.67;56.45;101820.72;1686117;84;21133;-72
2022/03/16 00:02:40;;;;;;;4.50;2.73;;;;;;;-0.69;56.39;101823.87;1682260;84;21596;-68
2022/03/16 00:05:08;;;;;;;5.60;2.57;;;;;;;-0.72;56.43;101813.55;1699481;83;21074;-69
2022/03/16 00:07:35;;;;;;;7.73;3.27;;;;;;;-0.76;56.22;101819.87;1689329;84;21063;-68
2022/03/16 00:10:04;;;;;;;11.30;4.60;;;;;;;-0.81;56.15;101836.27;1702081;84;21070;-67
2022/03/16 00:12:31;;;;;;;8.97;4.17;;;;;;;-0.85;56.23;101820.34;1683692;84;21121;-71
2022/03/16 00:14:58;;;;;;;8.63;3.50;;;;;;;-0.84;56.11;101828.12;1698090;84;21206;-69
2022/03/16 00:17:26;;;;;;;7.03;2.87;;;;;;;-0.88;56.04;101820.05;1686532;84;21126;-69
2022/03/16 00:19:52;;;;;;;7.20;3.37;;;;;;;-0.89;56.03;101818.81;1681875;84;21645;-70
2022/03/16 00:22:20;;;;;;;2.60;1.67;;;;;;;-0.90;56.13;101818.45;1682070;84;21000;-69
2022/03/16 00:27:20;;;;;;;4.07;2.13;;;;;;;-0.84;56.00;101807.66;1797965;79;22254;-70
2022/03/16 00:29:48;;;;;;;1.55;1.00;;;;;;;-0.89;56.00;101817.50;1754450;80;21022;-69
2022/03/16 00:32:15;;;;;;;1.47;0.80;;;;;;;-0.91;55.90;101812.81;1758955;80;21061;-69
2022/03/16 00:34:43;;;;;;;2.70;1.47;;;;;;;-0.87;55.89;101820.89;1720473;80;21033;-69
2022/03/16 00:37:09;;;;;;;2.27;1.65;;;;;;;-0.88;55.90;101821.83;1681135;83;21130;-68
2022/03/16 00:39:38;;;;;;;2.47;0.93;;;;;;;-0.86;55.84;101814.74;1685415;83;21058;-68
2022/03/16 00:42:06;;;;;;;;;;;;;;;-0.85;55.83;101819.03;1719136;82;21115;-68
2022/03/16 00:44:35;;;;;;;2.20;0.53;;;;;;;-0.85;55.76;101819.91;1701970;81;20134;-70
2022/03/16 00:47:04;;;;;;;2.63;1.40;;;;;;;-0.93;55.87;101809.43;1701973;83;21018;-68
2022/03/16 00:49:32;;;;;;;5.10;1.17;;;;;;;-0.95;55.83;101819.13;1670156;84;21382;-68
2022/03/16 00:52:01;;;;;;;1.30;1.13;;;;;;;-1.00;55.89;101812.80;1704763;83;21042;-69
2022/03/16 00:54:33;;;;;;;3.57;1.73;;;;;;;-1.06;56.05;101810.50;1669350;84;21109;-66
2022/03/16 00:57:01;;;;;;;2.23;1.50;;;;;;;-1.05;55.92;101826.60;1679148;84;21054;-69
2022/03/16 00:59:28;;;;;;;1.80;1.20;;;;;;;-1.11;55.87;101821.21;1675218;84;21007;-69
2022/03/16 01:01:55;;;;;;;2.10;1.45;;;;;;;-1.13;56.03;101825.68;1667858;84;21041;-69
2022/03/16 01:04:21;;;;;;;;;;;;;;;-1.23;56.14;101827.04;1680862;84;21140;-68
2022/03/16 01:06:49;;;;;;;2.17;1.57;;;;;;;-1.21;56.10;101821.27;1672287;84;20148;-69
2022/03/16 01:09:20;;;;;;;2.43;1.10;;;;;;;-1.27;56.25;101820.27;1668949;84;21562;-67
2022/03/16 01:11:48;;;;;;;1.33;1.03;;;;;;;-1.49;56.19;101766.84;1677476;83;21125;-68
2022/03/16 01:14:14;;;;;;;1.23;0.97;;;;;;;-1.23;55.96;101807.42;1691823;83;21523;-71
2022/03/16 01:16:41;;;;;;;1.70;0.77;;;;;;;-1.20;55.80;101816.43;1698655;83;21055;-67
2022/03/16 01:19:12;;;;;;;1.50;1.00;;;;;;;-1.24;55.80;101807.88;1690917;83;21522;-67
2022/03/16 01:21:37;;;;;;;2.20;1.13;;;;;;;-1.23;55.73;101815.27;1717074;82;21066;-68
2022/03/16 01:24:07;;;;;;;1.10;0.43;;;;;;;-1.25;55.63;101812.72;1675853;84;20995;-68
2022/03/16 01:26:37;;;;;;;2.10;0.87;;;;;;;-1.23;55.37;101810.03;1662642;84;21114;-72
2022/03/16 01:29:04;;;;;;;1.10;0.50;;;;;;;-1.25;55.27;101800.11;1717413;81;21624;-70
2022/03/16 01:31:31;;;;;;;2.97;1.23;;;;;;;-1.33;55.42;101800.48;1725203;81;22072;-67
2022/03/16 01:33:59;;;;;;;2.25;0.80;;;;;;;-1.35;55.50;101802.80;1720391;82;21089;-72
2022/03/16 01:36:26;;;;;;;0.73;0.70;;;;;;;-1.40;55.48;101803.01;1717948;82;21113;-67
2022/03/16 01:38:54;;;;;;;1.10;0.80;;;;;;;-1.45;55.63;101804.56;1713746;82;21110;-74
2022/03/16 01:41:22;;;;;;;1.57;0.50;;;;;;;-1.45;55.67;101803.69;1695552;82;21034;-67
2022/03/16 01:43:56;;;;;;;2.20;0.70;;;;;;;-1.43;55.59;101809.25;1702457;82;20979;-67
2022/03/16 01:46:24;;;;;;;2.70;1.30;;;;;;;-1.43;55.59;101801.84;1701701;81;21128;-68
2022/03/16 01:48:52;;;;;;;2.10;1.67;;;;;;;-1.47;55.64;101803.79;1697677;82;21120;-68
2022/03/16 01:51:21;;;;;;;2.47;0.93;;;;;;;-1.53;55.70;101801.45;1699253;82;21551;-69
2022/03/16 01:53:49;;;;;;;1.90;0.87;;;;;;;-1.55;55.81;101802.45;1698553;82;21042;-68
2022/03/16 01:56:17;;;;;;;2.10;1.00;;;;;;;-1.55;55.80;101805.91;1698921;82;21521;-67
2022/03/16 01:58:44;;;;;;;3.33;1.10;;;;;;;-1.59;55.85;101808.28;1700598;82;21007;-66
2022/03/16 02:01:11;;;;;;;1.13;0.87;;;;;;;-1.64;55.94;101801.98;1706966;82;21010;-66
2022/03/16 02:03:37;;;;;;;1.72;0.62;;;;;;;-1.64;55.97;101799.37;1709763;82;21057;-69
2022/03/16 02:06:04;;;;;;;1.07;0.63;;;;;;;-1.66;55.96;101808.19;1699311;82;21101;-68
2022/03/16 02:08:33;;;;;;;1.13;0.93;;;;;;;-1.81;56.36;101809.76;1704238;82;21050;-67
2022/03/16 02:11:03;;;;;;;0.97;0.77;;;;;;;-1.87;56.42;101812.20;1695360;82;21486;-68
2022/03/16 02:13:34;;;;;;;1.50;1.07;;;;;;;-1.86;56.48;101815.69;1703879;82;21056;-68
2022/03/16 02:16:03;;;;;;;1.27;0.93;;;;;;;-1.89;56.66;101819.27;1698802;82;21244;-72
2022/03/16 02:18:31;;;;;;;1.77;1.00;;;;;;;-1.88;56.56;101814.44;1700585;82;21140;-67
2022/03/16 02:21:02;;;;;;;1.87;0.60;;;;;;;-1.85;56.57;101815.59;1706298;82;21040;-71
2022/03/16 02:23:30;;;;;;;1.40;0.70;;;;;;;-1.87;56.55;101814.81;1722548;81;21181;-66
2022/03/16 02:25:58;;;;;;;0.80;0.40;;;;;;;-1.98;56.99;101816.64;1727489;81;21406;-68
2022/03/16 02:28:28;;;;;;;0.40;0.40;;;;;;;-2.40;56.97;101748.91;1739525;81;21031;-68
2022/03/16 02:30:55;;;;;;;0.97;0.63;;;;;;;-1.98;56.97;101818.39;1722985;81;21038;-68
2022/03/16 02:33:25;;;;;;;1.77;0.60;;;;;;;-1.93;56.95;101815.11;1724857;81;22181;-70
2022/03/16 02:35:51;;;;;;;0.70;0.40;;;;;;;-1.93;57.01;101826.87;1721447;82;21217;-68
2022/03/16 02:38:20;;;;;;;1.57;0.30;;;;;;;-1.90;56.97;101824.13;1726352;82;21002;-68
2022/03/16 02:40:47;;;;;;;1.35;0.68;;;;;;;-1.91;57.03;101828.95;1719439;82;21079;-68
2022/03/16 02:43:14;;;;;;;0.93;0.80;;;;;;;-1.91;56.95;101822.41;1694815;82;21327;-68
2022/03/16 02:45:41;;;;;;;0.83;0.60;;;;;;;-1.90;56.93;101825.44;1727042;81;21345;-71
2022/03/16 02:48:08;;;;;;;0.60;0.50;;;;;;;-2.36;57.20;101752.61;1726912;82;21130;-69
2022/03/16 02:50:35;;;;;;;3.23;1.20;;;;;;;-2.03;57.45;101823.00;1669695;84;21306;-72
2022/03/16 02:53:02;;;;;;;1.37;0.47;;;;;;;-2.10;57.67;101819.80;1716853;82;21062;-68
2022/03/16 02:55:30;;;;;;;0.60;0.47;;;;;;;-2.14;57.84;101825.25;1715703;81;21050;-68
2022/03/16 02:57:57;;;;;;;1.90;0.80;;;;;;;-2.22;58.08;101826.44;1719124;82;21054;-67
2022/03/16 03:00:26;;;;;;;;;;;;;;;-2.23;58.22;101822.59;1722090;82;21125;-72
2022/03/16 03:02:54;;;;;;;1.07;0.63;;;;;;;-2.20;58.07;101819.38;1714529;83;20175;-68
2022/03/16 03:05:22;;;;;;;0.80;0.57;;;;;;;-2.21;58.07;101824.67;1719995;82;21712;-70
2022/03/16 03:07:49;;;;;;;0.73;0.70;;;;;;;-2.26;58.45;101820.10;1714814;82;21069;-68
2022/03/16 03:10:18;;;;;;;0.70;0.60;;;;;;;-2.23;58.36;101827.34;1716514;83;21042;-70
2022/03/16 03:12:47;;;;;;;1.00;0.70;;;;;;;-2.25;58.33;101822.66;1736130;82;20963;-68
2022/03/16 03:15:15;;;;;;;1.37;0.70;;;;;;;-2.26;58.43;101822.28;1692487;82;21055;-69
2022/03/16 03:17:43;;;;;;;0.53;0.53;;;;;;;-2.21;58.43;101828.59;1717388;82;21616;-67
2022/03/16 03:20:12;;;;;;;1.23;0.67;;;;;;;-2.19;58.33;101828.89;1711515;82;21019;-69
2022/03/16 03:22:40;;;;;;;1.70;1.07;;;;;;;-2.18;58.34;101826.69;1708571;82;21002;-67
2022/03/16 03:25:12;;;;;;;0.67;0.50;;;;;;;-2.18;58.45;101828.46;1720867;82;21624;-68
2022/03/16 03:27:39;;;;;;;1.60;0.63;;;;;;;-2.23;58.57;101826.04;1688035;84;21106;-68
2022/03/16 03:30:07;;;;;;;1.57;0.87;;;;;;;-2.26;58.66;101822.28;1720918;82;21134;-73
2022/03/16 03:32:35;;;;;;;1.33;0.70;;;;;;;-2.35;59.03;101821.38;1721802;82;21341;-69
2022/03/16 03:35:02;;;;;;;0.93;0.70;;;;;;;-2.38;59.20;101835.88;1737290;81;21077;-68
2022/03/16 03:37:29;;;;;;;1.37;0.77;;;;;;;-2.37;59.11;101839.72;1721665;82;21851;-68
2022/03/16 03:39:57;;;;;;;0.83;0.60;;;;;;;-2.37;59.27;101838.89;1715186;82;21118;-67
2022/03/16 03:42:24;;;;;;;0.97;0.67;;;;;;;-2.44;59.85;101849.20;1721731;82;21425;-69
2022/03/16 03:44:53;;;;;;;0.50;0.50;;;;;;;-2.52;60.20;101838.23;1727190;80;21030;-73
2022/03/16 03:47:20;;;;;;;2.30;1.07;;;;;;;-2.52;59.96;101833.87;1721666;82;21070;-68
2022/03/16 03:49:47;;;;;;;1.27;0.67;;;;;;;-2.47;59.90;101829.28;1717518;82;21070;-69
2022/03/16 03:52:14;;;;;;;0.82;0.60;;;;;;;-2.44;59.97;101846.13;1725470;82;21086;-71
2022/03/16 03:54:41;;;;;;;0.85;0.57;;;;;;;-2.38;59.84;101839.79;1724543;82;22103;-70
2022/03/16 03:57:09;;;;;;;1.43;0.60;;;;;;;-2.40;60.08;101844.23;1716176;82;21023;-67
2022/03/16 03:59:36;;;;;;;1.50;0.78;;;;;;;-2.45;60.35;101842.27;1721898;82;21026;-69
2022/03/16 04:02:04;;;;;;;0.77;0.50;;;;;;;-2.49;60.45;101840.72;1723214;81;21044;-67
2022/03/16 04:04:32;;;;;;;1.40;0.63;;;;;;;-2.52;60.55;101843.45;1722020;82;21082;-68
2022/03/16 04:06:59;;;;;;;1.03;0.77;;;;;;;-2.58;60.87;101842.83;1721853;82;21058;-68
2022/03/16 04:09:27;;;;;;;0.90;0.77;;;;;;;-2.58;60.94;101838.91;1729251;82;21304;-73
2022/03/16 04:11:54;;;;;;;1.30;1.07;;;;;;;-2.89;60.88;101788.94;1720984;82;21031;-67
2022/03/16 04:14:21;;;;;;;1.93;0.80;;;;;;;-2.57;60.92;101839.28;1712661;82;21050;-68
2022/03/16 04:16:50;;;;;;;2.70;1.10;;;;;;;-2.59;61.27;101835.05;1721861;82;21041;-67
2022/03/16 04:19:22;;;;;;;1.37;0.60;;;;;;;-2.59;61.20;101847.64;1721163;82;21153;-70
2022/03/16 04:21:52;;;;;;;1.90;0.87;;;;;;;-2.64;61.45;101850.06;1704407;82;21185;-71
2022/03/16 04:24:19;;;;;;;2.03;1.07;;;;;;;-2.65;61.52;101841.39;1704294;82;21087;-67
2022/03/16 04:26:46;;;;;;;1.63;1.10;;;;;;;-2.62;61.55;101849.09;1717288;82;21097;-67
2022/03/16 04:29:13;;;;;;;2.03;1.77;;;;;;;-2.60;61.81;101853.80;1720927;82;21057;-68
2022/03/16 04:31:40;;;;;;;;;;;;;;;-2.63;61.97;101846.55;1720729;82;21112;-66
2022/03/16 04:34:07;;;;;;;0.70;0.53;;;;;;;-2.59;62.18;101845.50;1721797;82;20130;-67
2022/03/16 04:36:34;;;;;;;2.10;1.30;;;;;;;-2.47;62.21;101847.56;1721583;82;21137;-70
2022/03/16 04:39:01;;;;;;;1.90;1.30;;;;;;;-2.10;62.07;101851.16;1721847;82;21072;-69
2022/03/16 04:41:28;;;;;;;2.42;1.50;;;;;;;-1.41;61.03;101844.49;1722547;82;21046;-70
2022/03/16 04:43:56;;;;;;;1.53;1.03;;;;;;;-0.69;57.57;101847.45;1721342;82;21045;-69
2022/03/16 04:46:23;;;;;;;1.20;0.80;;;;;;;-0.13;56.25;101839.31;1720569;82;21683;-70
2022/03/16 04:48:50;;;;;;;1.98;1.32;;;;;;;0.43;56.00;101840.61;1713499;82;21066;-69
2022/03/16 04:51:19;;;;;;;1.17;0.93;;;;;;;1.12;54.22;101842.39;1683974;84;21141;-71
2022/03/16 04:53:48;;;;;;;2.33;1.00;;;;;;;1.81;51.90;101843.95;1683174;84;21588;-69
2022/03/16 04:56:16;;;;;;;1.77;0.70;;;;;;;1.92;49.36;101848.08;1715169;81;21417;-68
2022/03/16 04:58:43;;;;;;;;;;;;;;;1.88;50.18;101847.89;1719603;82;21037;-71
2022/03/16 05:01:10;;;;;;;1.33;1.10;;;;;;;2.20;48.87;101848.98;1719271;82;20978;-72
2022/03/16 05:03:40;;;;;;;1.43;0.73;;;;;;;2.26;48.41;101849.91;1721131;82;21184;-70
2022/03/16 05:06:07;;;;;;;3.20;0.93;;;;;;;2.26;48.51;101855.17;1721933;82;21026;-67
2022/03/16 05:08:35;;;;;;;1.22;1.12;;;;;;;2.47;48.75;101851.67;1723174;82;21125;-69
2022/03/16 05:11:03;;;;;;;1.77;0.80;;;;;;;3.02;47.81;101859.06;1721826;82;21121;-68
2022/03/16 05:13:32;;;;;;;1.27;0.50;;;;;;;3.43;45.44;101855.45;1718170;82;22068;-73
2022/03/16 05:16:00;;;;;;;1.60;1.03;;;;;;;3.65;44.85;101858.27;1680915;84;20982;-70
2022/03/16 05:18:27;;;;;;;3.07;1.43;;;;;;;3.92;45.16;101854.69;1683630;84;21085;-71
2022/03/16 05:20:54;;;;;;;0.90;0.90;;;;;;;4.40;44.13;101860.53;1722250;82;21069;-70
2022/03/16 05:23:22;;;;;;;1.70;1.30;;;;;;;4.88;42.89;101851.30;1720665;81;21093;-69
2022/03/16 05:25:49;;;;;;;2.43;1.27;;;;;;;5.10;42.37;101861.09;1703297;82;21530;-69
2022/03/16 05:28:17;;;;;;;1.13;0.80;;;;;;;5.45;41.73;101862.88;1714025;82;21117;-72
2022/03/16 05:30:45;;;;;;;2.20;1.13;;;;;;;5.77;40.08;101871.45;1684859;84;21049;-70
2022/03/16 05:33:13;;;;;;;2.40;0.90;;;;;;;5.71;40.03;101863.97;1711633;82;22220;-69
2022/03/16 05:35:41;;;;;;;;;;;;;;;5.42;40.25;101863.93;1722589;82;21016;-69
2022/03/16 05:38:12;;;;;;;1.93;1.47;;;;;;;4.94;41.12;101873.30;1719632;82;20135;-69
2022/03/16 05:40:39;;;;;;;0.73;0.60;;;;;;;4.87;41.58;101862.33;1722957;82;21051;-68
2022/03/16 05:43:06;;;;;;;2.17;1.30;;;;;;;5.03;41.31;101867.81;1721926;82;21507;-70
2022/03/16 05:45:33;;;;;;;0.60;0.60;;;;;;;4.68;41.34;101838.23;1721762;82;21082;-72
2022/03/16 05:48:00;;;;;;;1.20;0.97;;;;;;;4.85;41.31;101863.41;1715111;82;21082;-68
2022/03/16 05:50:28;;;;;;;1.50;0.70;;;;;;;4.96;41.58;101878.47;1727019;82;21144;-70
2022/03/16 05:53:00;;;;;;;1.13;1.03;;;;;;;5.38;41.03;101877.03;1721221;82;21577;-69
2022/03/16 05:55:30;;;;;;;1.77;1.40;;;;;;;5.82;39.75;101865.30;1729122;80;21267;-70
2022/03/16 05:57:57;;;;;;;3.00;1.53;;;;;;;5.57;39.73;101868.53;1742217;80;21105;-69
2022/03/16 06:00:24;;;;;;;3.03;1.37;;;;;;;4.99;40.82;101854.44;1744403;80;23070;-69
2022/03/16 06:02:52;;;;;;;2.13;1.33;;;;;;;4.82;41.88;101859.20;1734699;80;21124;-69
2022/03/16 06:05:18;;;;;;;;;;;;;;;5.44;41.45;101866.47;1746481;80;21086;-70
2022/03/16 06:07:46;;;;;;;2.00;0.93;;;;;;;6.20;39.34;101861.49;1753173;80;20123;-70
2022/03/16 06:10:17;;;;;;;2.30;1.40;;;;;;;6.24;38.61;101874.84;1747741;80;21124;-70
2022/03/16 06:12:58;;;;;;;1.10;0.93;;;;;;;5.71;39.30;101879.84;1701899;80;21034;-70
2022/03/16 06:15:27;;;;;;;1.50;1.07;;;;;;;5.45;39.72;101882.22;1674947;84;21068;-69
2022/03/16 06:18:00;;;;;;;1.57;1.47;;;;;;;5.24;40.21;101884.70;1682544;84;21069;-71
2022/03/16 06:20:30;;;;;;;1.77;1.10;;;;;;;5.20;40.73;101867.87;1676350;84;21068;-69
2022/03/16 06:22:57;;;;;;;1.73;1.33;;;;;;;5.34;40.41;101874.75;1683015;84;21188;-69
2022/03/16 06:25:26;;;;;;;3.35;1.47;;;;;;;5.56;40.20;101871.31;1679558;84;21026;-70
2022/03/16 06:27:54;;;;;;;1.73;1.50;;;;;;;5.52;39.96;101885.25;1677182;84;21037;-68
2022/03/16 06:30:20;;;;;;;1.10;1.00;;;;;;;5.57;39.97;101879.11;1684858;84;21102;-69
2022/03/16 06:32:48;;;;;;;3.53;1.87;;;;;;;5.92;39.67;101878.19;1659166;85;21066;-71
2022/03/16 06:35:16;;;;;;;1.90;1.47;;;;;;;6.42;38.73;101875.16;1653520;84;21574;-72
2022/03/16 06:37:45;;;;;;;1.43;1.30;;;;;;;7.05;37.98;101879.80;1652837;85;21069;-70
2022/03/16 06:40:14;;;;;;;1.10;1.00;;;;;;;7.21;36.47;101876.20;1664677;83;22202;-70
2022/03/16 06:42:55;;;;;;;3.10;1.67;;;;;;;6.94;36.80;101872.23;1649012;85;21093;-69
2022/03/16 06:45:23;;;;;;;1.70;1.03;;;;;;;6.12;37.78;101878.45;1681409;83;21569;-69
2022/03/16 06:48:00;;;;;;;1.83;1.20;;;;;;;4.98;39.74;101882.67;1691126;83;21116;-70
2022/03/16 06:50:28;;;;;;;2.20;2.00;;;;;;;4.00;41.91;101887.13;1691663;83;21128;-71
2022/03/16 06:52:58;;;;;;;2.60;0.97;;;;;;;3.11;43.42;101894.03;1689492;83;21041;-69
2022/03/16 06:55:30;;;;;;;1.23;1.13;;;;;;;2.51;45.28;101894.80;1681700;83;20994;-68
2022/03/16 06:57:55;;;;;;;1.30;1.20;;;;;;;2.07;45.72;101903.70;1666035;84;22392;-71
2022/03/16 07:00:23;;;;;;;5.70;2.03;;;;;;;1.70;47.06;101902.46;1668718;84;21490;-72
2022/03/16 07:03:05;;;;;;;2.07;1.40;;;;;;;1.46;47.25;101907.39;1680265;84;21069;-69
2022/03/16 07:05:40;;;;;;;3.57;1.80;;;;;;;1.29;48.04;101894.77;1681238;84;21037;-71
2022/03/16 07:08:13;;;;;;;2.57;1.93;;;;;;;1.19;48.25;101893.63;1680653;84;22094;-68
2022/03/16 07:10:43;;;;;;;2.30;1.73;;;;;;;0.99;48.45;101900.02;1689350;84;21129;-67
2022/03/16 07:13:12;;;;;;;6.87;1.93;;;;;;;0.60;49.60;101914.92;1688159;83;22265;-69
2022/03/16 07:15:42;;;;;;;3.63;1.77;;;;;;;0.31;50.09;101910.34;1691097;83;21037;-68
2022/03/16 07:18:11;;;;;;;2.20;1.50;;;;;;;0.18;50.79;101919.33;1682435;83;21084;-67
2022/03/16 07:20:39;;;;;;;3.13;1.57;;;;;;;0.19;51.22;101911.86;1680179;83;21097;-68
2022/03/16 07:23:13;;;;;;;3.03;1.50;;;;;;;0.29;50.98;101907.43;1678710;83;21013;-70
2022/03/16 07:25:46;;;;;;;2.40;1.10;;;;;;;0.43;50.35;101914.53;1683327;83;21093;-69
2022/03/16 07:28:17;;;;;;;3.40;2.10;;;;;;;0.48;50.43;101925.16;1690710;83;21080;-70
2022/03/16 07:30:45;;;;;;;2.23;1.43;;;;;;;0.57;50.17;101914.16;1680493;83;21057;-69
2022/03/16 07:33:13;;;;;;;4.00;2.07;;;;;;;0.54;50.69;101919.56;1682862;83;21867;-67
2022/03/16 07:35:40;;;;;;;2.37;1.87;;;;;;;0.56;50.74;101911.14;1683677;83;21017;-67
2022/03/16 07:38:08;;;;;;;3.03;2.30;;;;;;;0.55;50.52;101912.09;1699984;83;21050;-69
2022/03/16 07:40:37;;;;;;;6.00;3.83;;;;;;;0.62;50.03;101909.12;1693502;83;21064;-72
2022/03/16 07:43:05;;;;;;;3.90;2.77;;;;;;;0.67;50.32;101909.72;1688879;83;21037;-67
2022/03/16 07:45:33;;;;;;;3.13;2.80;;;;;;;0.84;49.40;101912.23;1696373;83;21072;-68
2022/03/16 07:48:01;;;;;;;5.13;2.60;;;;;;;0.85;49.08;101906.52;1687594;83;21061;-70
2022/03/16 07:50:30;;;;;;;2.40;2.20;;;;;;;0.88;48.85;101909.81;1686786;83;21101;-69
2022/03/16 07:52:58;;;;;;;2.57;2.20;;;;;;;0.94;48.36;101918.67;1689502;83;21088;-72
2022/03/16 07:55:26;;;;;;;3.80;2.27;;;;;;;1.09;47.56;101905.58;1692712;83;21057;-68
2022/03/16 07:57:54;;;;;;;8.53;2.30;;;;;;;1.15;46.19;101916.59;1692502;83;21912;-68
2022/03/16 08:00:22;;;;;;;4.83;2.10;;;;;;;1.23;46.52;101909.59;1685681;83;21026;-68
2022/03/16 08:02:54;;;;;;;2.77;2.00;;;;;;;1.36;46.67;101921.06;1692321;83;21050;-70
2022/03/16 08:05:21;;;;;;;3.73;2.17;;;;;;;1.44;46.23;101912.73;1691152;83;21174;-69
2022/03/16 08:07:50;;;;;;;2.77;1.77;;;;;;;1.44;46.13;101913.21;1686763;83;20998;-67
2022/03/16 08:10:17;;;;;;;3.93;3.30;;;;;;;1.44;46.42;101907.48;1683322;83;21088;-72
2022/03/16 08:12:43;;;;;;;3.30;2.67;;;;;;;1.51;46.28;101912.75;1686933;83;21029;-69
2022/03/16 08:15:13;;;;;;;2.53;1.67;;;;;;;1.59;45.85;101893.06;1683846;83;21054;-69
2022/03/16 08:17:40;;;;;;;8.57;2.27;;;;;;;1.64;45.42;101898.42;1695991;81;21417;-74
2022/03/16 08:20:09;;;;;;;2.47;2.07;;;;;;;1.67;45.29;101895.59;1690680;83;21596;-70
2022/03/16 08:22:37;;;;;;;5.73;2.00;;;;;;;1.71;44.33;101896.25;1692164;81;21869;-73
2022/03/16 08:25:08;;;;;;;4.97;2.83;;;;;;;1.68;44.66;101899.92;1684793;83;21755;-69
2022/03/16 08:27:39;;;;;;;1.83;1.40;;;;;;;1.69;44.96;101902.07;1682023;83;21061;-73
2022/03/16 08:30:08;;;;;;;3.63;2.00;;;;;;;1.79;44.54;101899.73;1686977;83;20986;-74
2022/03/16 08:32:38;;;;;;;5.90;1.63;;;;;;;1.76;44.69;101890.25;1690502;83;21081;-71
2022/03/16 08:35:06;;;;;;;4.97;2.93;;;;;;;1.91;45.22;101904.26;1682810;83;21137;-71
2022/03/16 08:37:34;;;;;;;3.43;2.00;;;;;;;2.01;44.77;101913.26;1687886;83;21026;-72
2022/03/16 08:40:02;;;;;;;2.70;1.47;;;;;;;2.07;44.06;101906.33;1694126;83;21081;-75
2022/03/16 08:42:30;;;;;;;2.10;1.77;;;;;;;2.16;42.42;101917.22;1691400;83;21521;-69
2022/03/16 08:44:57;;;;;;;3.63;2.00;;;;;;;2.22;42.13;101923.41;1676691;83;21029;-72
2022/03/16 08:47:24;;;;;;;6.73;2.40;;;;;;;2.33;40.85;101905.16;1681519;83;21072;-69
2022/03/16 08:49:53;;;;;;;4.07;2.10;;;;;;;2.37;41.51;101904.02;1679417;83;21057;-69
2022/03/16 08:52:23;;;;;;;2.60;1.97;;;;;;;2.41;41.68;101902.91;1689124;83;21048;-70
2022/03/16 08:54:50;;;;;;;2.57;1.83;;;;;;;2.44;41.94;101903.17;1692933;83;21018;-68
2022/03/16 08:57:21;;;;;;;6.40;2.60;;;;;;;2.53;42.12;101910.02;1689236;83;21109;-70
2022/03/16 08:59:49;;;;;;;3.50;2.20;;;;;;;2.62;41.42;101898.06;1684140;83;21105;-71
2022/03/16 09:02:17;;;;;;;2.57;2.07;;;;;;;2.66;40.81;101905.30;1691009;83;21041;-69
2022/03/16 09:04:45;;;;;;;4.00;1.90;;;;;;;2.68;40.71;101898.98;1687037;83;21100;-68
2022/03/16 09:07:12;;;;;;;2.70;1.90;;;;;;;2.71;40.61;101899.24;1691140;83;22555;-69
2022/03/16 09:09:40;;;;;;;2.13;1.90;;;;;;;2.80;40.52;101903.08;1689844;83;21077;-70
2022/03/16 09:12:11;;;;;;;2.07;1.90;;;;;;;2.82;40.34;101900.70;1692421;83;20992;-69
2022/03/16 09:14:39;;;;;;;4.63;1.53;;;;;;;2.86;40.05;101907.49;1693388;83;21002;-69
2022/03/16 09:17:08;;;;;;;1.90;1.70;;;;;;;2.84;39.44;101919.89;1691854;83;21059;-67
2022/03/16 09:19:35;;;;;;;2.83;1.73;;;;;;;2.77;39.81;101912.04;1694164;83;21156;-69
2022/03/16 09:22:04;;;;;;;2.27;1.17;;;;;;;2.70;40.05;101908.10;1685934;83;21092;-72
2022/03/16 09:24:32;;;;;;;1.10;1.00;;;;;;;2.62;40.17;101905.96;1686290;83;21132;-70
2022/03/16 09:27:00;;;;;;;2.93;1.13;;;;;;;2.60;39.71;101922.33;1693276;83;21048;-68
2022/03/16 09:29:32;;;;;;;1.00;0.77;;;;;;;2.58;39.66;101913.69;1688923;83;21164;-69
2022/03/16 09:31:57;;;;;;;1.80;0.87;;;;;;;2.55;39.91;101924.88;1690281;83;21405;-70
2022/03/16 09:34:24;;;;;;;1.13;0.80;;;;;;;2.45;40.59;101917.56;1691561;83;21704;-74
2022/03/16 09:36:51;;;;;;;1.03;0.80;;;;;;;2.41;40.63;101918.70;1688783;83;21137;-69
2022/03/16 09:39:21;;;;;;;1.57;1.00;;;;;;;2.45;40.80;101932.48;1691023;83;21056;-70
2022/03/16 09:41:49;;;;;;;1.33;0.90;;;;;;;2.48;40.42;101913.40;1689181;83;21033;-72
2022/03/16 09:44:19;;;;;;;1.93;0.70;;;;;;;2.53;39.69;101923.17;1690632;83;21045;-73
2022/03/16 09:46:48;;;;;;;1.37;0.83;;;;;;;2.53;39.99;101924.49;1692764;83;21095;-68
2022/03/16 09:49:15;;;;;;;1.53;0.70;;;;;;;2.60;40.19;101928.05;1690605;83;21326;-68
2022/03/16 09:51:42;;;;;;;;;;;;;;;2.53;39.97;101923.17;1690287;83;21600;-68
2022/03/16 09:54:09;;;;;;;1.33;1.20;;;;;;;2.53;40.29;101941.61;1684264;83;20088;-69
2022/03/16 09:56:38;;;;;;;3.80;0.80;;;;;;;2.49;40.45;101923.00;1686176;83;21049;-69
2022/03/16 09:59:05;;;;;;;1.90;0.60;;;;;;;2.57;40.35;101940.11;1695157;83;21626;-71
2022/03/16 10:01:35;;;;;;;0.90;0.50;;;;;;;2.64;39.52;101926.45;1692080;83;21486;-75
2022/03/16 10:04:06;;;;;;;1.20;0.50;;;;;;;2.69;39.45;101933.59;1690827;83;21061;-68
2022/03/16 10:06:40;;;;;;;0.63;0.37;;;;;;;2.76;39.03;101922.66;1689485;83;21152;-68
2022/03/16 10:15:18;;;;;;;0.73;0.73;;;;;;;2.72;36.88;101927.28;1693205;83;22213;-75
2022/03/16 10:17:52;;;;;;;1.93;0.63;;;;;;;2.73;37.51;101940.35;1678670;83;21417;-78
2022/03/16 10:20:35;;;;;;;1.13;1.07;;;;;;;2.75;37.92;101944.66;1683013;83;21037;-71
2022/03/16 10:23:10;;;;;;;1.23;0.70;;;;;;;2.79;38.14;101927.27;1678466;83;21045;-68
2022/03/16 10:25:51;;;;;;;0.97;0.70;;;;;;;2.84;38.65;101924.31;1688976;83;21105;-68
2022/03/16 10:28:28;;;;;;;2.13;1.23;;;;;;;2.85;38.45;101933.92;1691881;83;21104;-72
2022/03/16 10:31:02;;;;;;;1.87;0.93;;;;;;;2.91;38.42;101927.77;1690013;83;21758;-69
2022/03/16 10:33:33;;;;;;;1.23;0.60;;;;;;;2.96;38.80;101946.38;1688095;83;21080;-73
2022/03/16 10:36:11;;;;;;;1.53;0.93;;;;;;;2.89;39.14;101927.51;1683870;83;21006;-69
2022/03/16 10:38:43;;;;;;;;;;;;;;;2.85;39.05;101940.03;1691585;81;21041;-72
2022/03/16 10:47:20;;;;;;;1.00;0.70;;;;;;;2.79;37.08;101919.36;1685841;83;21104;-69
2022/03/16 10:49:51;;;;;;;6.43;1.03;;;;;;;2.82;37.55;101930.99;1685883;83;21102;-74
2022/03/16 10:52:19;;;;;;;1.17;0.73;;;;;;;2.89;37.61;101927.51;1683672;82;21828;-71
2022/03/16 10:54:50;;;;;;;1.27;0.80;;;;;;;2.96;36.43;101938.48;1686853;83;21053;-75
2022/03/16 10:57:20;;;;;;;1.30;0.47;;;;;;;2.98;36.10;101931.34;1685141;83;21104;-73
2022/03/16 10:59:50;;;;;;;1.37;0.80;;;;;;;2.98;36.12;101929.55;1683072;83;21049;-69
2022/03/16 11:02:20;;;;;;;0.90;0.80;;;;;;;2.91;35.54;101929.56;1685202;83;21065;-72
2022/03/16 11:04:50;;;;;;;0.90;0.90;;;;;;;3.04;35.55;101932.25;1685161;83;21049;-69
2022/03/16 11:07:19;;;;;;;1.17;0.40;;;;;;;3.07;34.83;101946.53;1683588;83;21049;-74
2022/03/16 11:09:48;;;;;;;2.03;1.20;;;;;;;3.02;34.93;101936.78;1681217;83;21091;-68
2022/03/16 11:15:06;;;;;;;0.83;0.67;;;;;;;2.89;35.36;101934.09;1695934;83;21113;-69
2022/03/16 11:17:39;;;;;;;1.00;0.50;;;;;;;2.91;35.46;101930.41;1685263;83;21038;-69
2022/03/16 11:20:09;;;;;;;0.80;0.53;;;;;;;2.90;35.51;101916.02;1679873;83;21020;-70
2022/03/16 11:26:15;;;;;;;1.33;0.60;;;;;;;3.00;35.46;101925.50;1686019;83;21116;-70
2022/03/16 11:29:06;;;;;;;0.87;0.47;;;;;;;2.95;35.30;101929.73;1681556;83;21504;-68
2022/03/16 11:31:34;;;;;;;1.50;0.93;;;;;;;2.94;35.24;101926.75;1689529;83;21041;-71
2022/03/16 11:34:04;;;;;;;1.60;0.70;;;;;;;2.97;35.28;101925.20;1691564;83;21030;-68
2022/03/16 11:36:40;;;;;;;1.00;0.60;;;;;;;3.02;34.94;101932.34;1685854;83;21057;-67
2022/03/16 11:39:20;;;;;;;2.00;0.30;;;;;;;2.99;33.75;101936.48;1688139;83;21089;-70
2022/03/16 11:41:53;;;;;;;0.73;0.47;;;;;;;2.94;34.36;101922.80;1684317;83;21101;-69
2022/03/16 11:44:26;;;;;;;0.53;0.30;;;;;;;2.90;34.43;101910.74;1689162;83;21037;-68
2022/03/16 11:46:58;;;;;;;0.77;0.70;;;;;;;2.92;34.56;101903.62;1684315;83;21209;-72
2022/03/16 11:49:30;;;;;;;0.60;0.30;;;;;;;2.96;34.47;101942.42;1672078;83;21032;-68
2022/03/16 11:52:01;;;;;;;0.37;0.30;;;;;;;2.99;34.72;101906.20;1682651;83;21049;-76
2022/03/16 11:54:46;;;;;;;0.80;0.40;;;;;;;2.95;34.12;101930.22;1689608;83;21033;-70
2022/03/16 11:57:17;;;;;;;0.50;0.27;;;;;;;2.92;33.19;101908.41;1684280;83;21060;-68
2022/03/16 11:59:45;;;;;;;2.20;0.30;;;;;;;2.95;33.33;101917.88;1687336;83;21152;-68